Flight Track Log - Related Links

Times and Time Zones

All times are in EDT time to prevent confusion due to time zone crossing. See the N41166 flight status page for this flight to view local times or setup timezone preferences in your user account.

Time Position Orientation Groundspeed Altitude Reporting Facility
EDT Latitude Longitude Course Direction KTS MPH feet Rate Location/Type
Sat 11:14:10 AM 41.2483 -70.4508 268° West 136 157 6,300  Level Boston Center
Sat 11:15:10 AM 41.2475 -70.5075 269° West 155 178 6,600 149 Climbing Boston Center
Sat 11:16:11 AM 41.2467 -70.5711 269° West 168 193 6,600  Level Boston Center
Sat 11:17:00 AM 41.3506 -70.3872 282° West  Level FlightAware Approximate
Sat 11:17:15 AM 41.2467 -70.6328 270° West 168 193 6,600  Level Boston Center
Sat 11:18:00 AM 41.3595 -70.4445 282° West  Level FlightAware Approximate
Sat 11:18:16 AM 41.2547 -70.6947 280° West 169 194 6,600  Level Boston Center
Sat 11:19:16 AM 41.2622 -70.7694 278° West 169 194 6,600  Level Boston Center
Sat 11:19:50 AM 41.2661 -70.8086 278° West 172 198 6,600  Level Boston Center
Sat 11:20:17 AM 41.2744 -70.8347 293° West 170 196 6,600 264 Level Boston Center
Sat 11:21:21 AM 41.2819 -70.8953 279° West 169 194 7,000 456 Climbing Boston Center
Sat 11:21:36 AM 41.2806 -70.9081 262° West 155 178 7,200 492 Climbing Boston Center
Sat 11:22:22 AM 41.2833 -70.9514 275° West 154 177 7,500 393 Climbing Boston Center
Sat 11:22:37 AM 41.2808 -70.9711 260° West 155 178 7,600 500 Climbing Boston Center
Sat 11:23:22 AM 41.2764 -71.0131 262° West 155 178 8,000 440 Climbing Boston Center
Sat 11:24:26 AM 41.2756 -71.0714 269° West 159 183 8,400 395 Climbing Boston Center
Sat 11:24:38 AM 41.2728 -71.0856 255° West 156 180 8,500 200 Climbing Boston Center
Sat 11:25:26 AM 41.2733 -71.1308 271° West 161 185 8,600 55 Climbing Boston Center
Sat 11:26:28 AM 41.2689 -71.1994 265° West 170 196 8,600  Level Boston Center
Sat 11:26:40 AM 41.2678 -71.2156 265° West 176 203 8,600  Level Boston Center
Sat 11:27:31 AM 41.2656 -71.2653 267° West 176 203 8,600  Level Boston Center
Sat 11:27:43 AM 41.2656 -71.2803 270° West 177 204 8,600  Level Boston Center
Sat 11:28:32 AM 41.2633 -71.3311 267° West 177 204 8,600  Level Boston Center
Sat 11:28:44 AM 41.2622 -71.3481 265° West 179 206 8,600  Level Boston Center
Sat 11:29:32 AM 41.2606 -71.4028 268° West 179 206 8,600  Level Boston Center
Sat 11:30:33 AM 41.2575 -71.4694 267° West 180 207 8,600  Level Boston Center
Sat 11:30:52 AM 41.2564 -71.4919 266° West 183 211 8,600  Level Boston Center
Sat 11:31:37 AM 41.2542 -71.5369 266° West 181 208 8,600  Level Boston Center
Sat 11:32:47 AM 41.2511 -71.6217 267° West 182 209 8,600  Level Boston Center
Sat 11:33:41 AM 41.2486 -71.6756 266° West 181 208 8,600  Level Boston Center
Sat 11:34:41 AM 41.2458 -71.7436 267° West 182 209 8,600  Level Boston Center
Sat 11:34:51 AM 41.2444 -71.7569 262° West 185 213 8,600  Level Boston Center
Sat 11:35:42 AM 41.2431 -71.8150 268° West 183 211 8,600  Level Boston Center
Sat 11:36:46 AM 41.2400 -71.8814 267° West 178 205 8,600  Level Boston Center
Sat 11:37:44 AM 41.2375 -71.9389 267° West 179 206 8,600  Level Boston Center
Sat 11:37:54 AM 41.2364 -71.9603 266° West 179 206 8,600  Level Boston Center
Sat 11:38:48 AM 41.2319 -72.0217 265° West 184 212 8,600  Level Boston Center
Sat 11:39:49 AM 41.2311 -72.0872 269° West 179 206 8,600  Level Boston Center
Sat 11:40:50 AM 41.2272 -72.1511 265° West 181 208 8,600  Level Boston Center
Sat 11:41:51 AM 41.2231 -72.2164 265° West 180 207 8,600  Level Boston Center
Sat 11:42:03 AM 41.2217 -72.2331 264° West 179 206 8,600  Level Boston Center
Sat 11:42:54 AM 41.2197 -72.2831 267° West 180 207 8,600  Level Boston Center
Sat 11:43:55 AM 41.2153 -72.3497 265° West 180 207 8,600  Level Boston Center
Sat 11:53:26 AM 41.1833 -72.9833 255° West 181 208 8,600  Level New York TRACON
Sat 11:54:00 AM 41.0813 -72.9688 255° West  Level FlightAware Approximate
Sat 11:54:26 AM 41.1833 -73.0500 270° West 180 207 8,600  Level New York TRACON
Sat 11:55:00 AM 41.0690 -73.0309 255° West  Level FlightAware Approximate
Sat 11:55:21 AM 41.1833 -73.1167 270° West 182 209 8,600  Level New York TRACON
Sat 11:56:00 AM 41.0567 -73.0929 255° West  Level FlightAware Approximate
Sat 11:56:26 AM 41.1667 -73.1833 252° West 180 207 8,600  Level New York TRACON
Sat 11:57:00 AM 41.0444 -73.1550 255° West  Level FlightAware Approximate
Sat 11:57:21 AM 41.1667 -73.2500 270° West 181 208 8,600  Level New York TRACON
Sat 11:58:00 AM 41.0320 -73.2169 255° West  Level FlightAware Approximate
Sat 11:58:21 AM 41.1667 -73.3167 270° West 182 209 8,600  Level New York TRACON
Sat 11:59:21 AM 41.1667 -73.3833 270° West 181 208 8,600  Level New York TRACON
Sat 12:00:21 PM 41.1500 -73.4500 252° West 179 206 8,600 -350 Level New York TRACON
Sat 12:01:21 PM 41.1500 -73.5167 270° West 196 226 7,900 -600 Descending New York TRACON
Sat 12:02:21 PM 41.1500 -73.5833 270° West 194 223 7,400 -550 Descending New York TRACON
Sat 12:03:21 PM 41.1500 -73.6667 270° West 198 228 6,800 -500 Descending New York TRACON
Sat 12:04:21 PM 41.1333 -73.7333 252° West 195 224 6,400 -500 Descending New York TRACON
Sat 12:05:21 PM 41.1333 -73.8000 270° West 192 221 5,800 -600 Descending New York TRACON
Sat 12:06:21 PM 41.1333 -73.8667 270° West 190 219 5,200 -550 Descending New York TRACON
Sat 12:07:21 PM 41.1167 -73.9333 252° West 194 223 4,700 -524 Descending New York TRACON
Sat 12:08:27 PM 41.0667 -74.0000 225° Southwest 192 221 4,100 -571 Descending New York TRACON
Sat 12:09:27 PM 41.0333 -74.0500 229° Southwest 181 208 3,500 -579 Descending New York TRACON
Sat 12:10:21 PM 41.0167 -74.0833 236° Southwest 172 198 3,000 -474 Descending New York TRACON
Sat 12:11:21 PM 40.9833 -74.1333 229° Southwest 165 190 2,600 -200 Descending New York TRACON
Sat 12:12:21 PM 40.9500 -74.1833 229° Southwest 153 176 2,600  Level New York TRACON
Sat 12:13:21 PM 40.9333 -74.2167 237° Southwest 155 178 2,600  Level New York TRACON
Sat 12:14:21 PM 40.9000 -74.2667 229° Southwest 157 181 2,600  Level New York TRACON
Sat 12:15:21 PM 40.8833 -74.3167 246° West 156 180 2,600 -350 Level New York TRACON
Sat 12:16:21 PM 40.8667 -74.3500 237° Southwest 121 139 1,900 -750 Descending New York TRACON
Sat 12:17:21 PM 40.8333 -74.3833 217° Southwest 121 139 1,100 -800 Descending New York TRACON
Sat 12:19:00 PM 40.7993 -74.4149 232° Southwest  Level Estimated
Sat 12:26:00 PM 40.7993 -74.4149 North  Level Estimated
Sat 12:27:00 PM 40.7993 -74.4149 232° Southwest  Level Estimated
Sat 12:28:00 PM 40.7993 -74.4149 North  Level Estimated
Sat 12:29:00 PM 40.7993 -74.4149 232° Southwest  Level Estimated

Login

Don't have an account? Register now (free) for customized features, flight alerts, and more!